createdAt,value
2023-05-07T00:02:02.835Z,18.50
2023-05-07T00:04:36.835Z,18.40
2023-05-07T00:07:05.122Z,18.40
2023-05-07T00:09:33.206Z,18.50
2023-05-07T00:12:01.387Z,18.40
2023-05-07T00:14:29.505Z,18.40
2023-05-07T00:16:58.084Z,18.50
2023-05-07T00:19:26.203Z,18.40
2023-05-07T00:21:56.861Z,18.40
2023-05-07T00:24:24.954Z,18.50
2023-05-07T00:26:53.679Z,18.50
2023-05-07T00:29:21.828Z,18.50
2023-05-07T00:31:51.721Z,18.50
2023-05-07T00:34:19.776Z,18.50
2023-05-07T00:36:47.888Z,18.50
2023-05-07T00:39:17.306Z,18.50
2023-05-07T00:41:45.352Z,18.50
2023-05-07T00:44:13.389Z,18.50
2023-05-07T00:46:41.485Z,18.50
2023-05-07T00:49:09.553Z,18.50
2023-05-07T00:51:37.639Z,18.50
2023-05-07T00:54:05.976Z,18.50
2023-05-07T00:56:35.539Z,18.50
2023-05-07T00:59:04.337Z,18.50
2023-05-07T01:01:33.460Z,18.50
2023-05-07T01:04:01.669Z,18.50
2023-05-07T01:06:32.922Z,18.50
2023-05-07T01:09:02.037Z,18.50
2023-05-07T01:11:30.419Z,18.50
2023-05-07T01:14:01.615Z,18.50
2023-05-07T01:16:29.898Z,18.50
2023-05-07T01:18:57.994Z,18.50
2023-05-07T01:21:28.518Z,18.50
2023-05-07T01:23:59.149Z,18.50
2023-05-07T01:26:27.220Z,18.50
2023-05-07T01:28:55.246Z,18.40
2023-05-07T01:31:24.136Z,18.50
2023-05-07T01:33:54.209Z,18.40
2023-05-07T01:36:24.899Z,18.40
2023-05-07T01:38:53.013Z,18.40
2023-05-07T01:41:23.026Z,18.40
2023-05-07T01:43:52.227Z,18.40
2023-05-07T01:46:20.713Z,18.40
2023-05-07T01:48:48.913Z,18.40
2023-05-07T01:51:16.982Z,18.40
2023-05-07T01:53:46.759Z,18.30
2023-05-07T01:56:14.800Z,18.30
2023-05-07T01:58:44.213Z,18.30
2023-05-07T02:01:12.273Z,18.30
2023-05-07T02:03:40.595Z,18.30
2023-05-07T02:06:09.316Z,18.30
2023-05-07T02:08:37.498Z,18.30
2023-05-07T02:11:05.857Z,18.30
2023-05-07T02:13:35.800Z,18.30
2023-05-07T02:16:05.789Z,18.30
2023-05-07T02:18:34.316Z,18.20
2023-05-07T02:21:02.361Z,18.20
2023-05-07T02:23:30.422Z,18.20
2023-05-07T02:25:58.447Z,18.20
2023-05-07T02:28:26.481Z,18.10
2023-05-07T02:30:55.453Z,18.10
2023-05-07T02:33:24.867Z,18.10
2023-05-07T02:35:52.975Z,18.10
2023-05-07T02:38:21.033Z,18.10
2023-05-07T02:40:49.045Z,18.10
2023-05-07T02:43:17.185Z,18.00
2023-05-07T02:45:45.320Z,18.00
2023-05-07T02:48:13.379Z,18.10
2023-05-07T02:50:42.805Z,18.00
2023-05-07T02:53:10.836Z,18.00
2023-05-07T02:55:38.853Z,18.00
2023-05-07T02:58:06.921Z,18.00
2023-05-07T03:00:35.128Z,18.00
2023-05-07T03:03:03.231Z,18.00
2023-05-07T03:05:31.342Z,18.00
2023-05-07T03:08:00.767Z,18.00
2023-05-07T03:10:28.786Z,18.00
2023-05-07T03:12:56.915Z,18.00
2023-05-07T03:15:25.017Z,18.00
2023-05-07T03:17:53.044Z,18.00
2023-05-07T03:20:21.250Z,18.00
2023-05-07T03:22:49.427Z,18.00
2023-05-07T03:25:18.844Z,18.00
2023-05-07T03:27:46.867Z,18.00
2023-05-07T03:30:15.159Z,17.90
2023-05-07T03:32:43.351Z,17.90
2023-05-07T03:35:11.455Z,17.90
2023-05-07T03:37:40.327Z,17.90
2023-05-07T03:40:11.500Z,17.90
2023-05-07T03:42:41.361Z,17.90
2023-05-07T03:45:10.716Z,17.90
2023-05-07T03:47:38.792Z,17.90
2023-05-07T03:50:07.505Z,17.90
2023-05-07T03:52:35.535Z,17.90
2023-05-07T03:55:03.593Z,17.90
2023-05-07T03:57:31.634Z,17.80
2023-05-07T04:00:01.056Z,17.80
2023-05-07T04:02:29.156Z,17.90
2023-05-07T04:04:57.561Z,17.80
2023-05-07T04:07:25.589Z,17.80
2023-05-07T04:09:53.637Z,17.80
2023-05-07T04:12:21.761Z,17.80
2023-05-07T04:14:49.810Z,17.80
2023-05-07T04:17:19.215Z,17.70
2023-05-07T04:19:47.856Z,17.70
2023-05-07T04:22:15.900Z,17.70
2023-05-07T04:24:43.923Z,17.70
2023-05-07T04:27:11.949Z,17.70
2023-05-07T04:29:43.184Z,17.70
2023-05-07T04:32:11.747Z,17.70
2023-05-07T04:34:41.474Z,17.70
2023-05-07T04:37:09.522Z,17.70
2023-05-07T04:39:37.570Z,17.70
2023-05-07T04:42:05.665Z,17.70
2023-05-07T04:44:33.808Z,17.70
2023-05-07T04:47:01.836Z,17.70
2023-05-07T04:49:29.880Z,17.60
2023-05-07T04:51:59.262Z,17.60
2023-05-07T04:54:27.564Z,17.60
2023-05-07T04:56:55.576Z,17.60
2023-05-07T04:59:23.742Z,17.60
2023-05-07T05:01:51.865Z,17.60
2023-05-07T05:04:19.939Z,17.60
2023-05-07T05:06:47.965Z,17.60
2023-05-07T05:09:17.439Z,17.60
2023-05-07T05:11:45.679Z,17.60
2023-05-07T05:14:13.735Z,17.50
2023-05-07T05:16:41.885Z,17.50
2023-05-07T05:19:10.028Z,17.50
2023-05-07T05:21:38.076Z,17.50
2023-05-07T05:24:06.395Z,17.50
2023-05-07T05:26:35.954Z,17.50
2023-05-07T05:29:04.045Z,17.40
2023-05-07T05:31:32.335Z,17.40
2023-05-07T05:34:00.485Z,17.40
2023-05-07T05:36:28.564Z,17.40
2023-05-07T05:38:57.356Z,17.40
2023-05-07T05:41:25.907Z,17.50
2023-05-07T05:43:55.328Z,17.40
2023-05-07T05:46:23.501Z,17.50
2023-05-07T05:48:51.612Z,17.50
2023-05-07T05:51:19.623Z,17.50
2023-05-07T05:53:47.649Z,17.50
2023-05-07T05:56:16.052Z,17.50
2023-05-07T05:58:44.204Z,17.50
2023-05-07T06:01:13.658Z,17.50
2023-05-07T06:03:41.681Z,17.50
2023-05-07T06:06:09.729Z,17.50
2023-05-07T06:08:37.827Z,17.60
2023-05-07T06:11:06.171Z,17.60
2023-05-07T06:13:34.202Z,17.60
2023-05-07T06:16:02.251Z,17.60
2023-05-07T06:18:31.744Z,17.60
2023-05-07T06:20:59.957Z,17.70
2023-05-07T06:23:28.000Z,17.70
2023-05-07T06:25:56.057Z,17.70
2023-05-07T06:28:24.106Z,17.80
2023-05-07T06:30:52.178Z,17.80
2023-05-07T06:33:20.767Z,17.80
2023-05-07T06:35:50.355Z,17.80
2023-05-07T06:38:18.436Z,17.90
2023-05-07T06:40:50.029Z,17.90
2023-05-07T06:43:18.048Z,17.90
2023-05-07T06:45:46.134Z,18.00
2023-05-07T06:48:14.215Z,18.00
2023-05-07T06:50:42.326Z,18.00
2023-05-07T06:53:11.759Z,18.00
2023-05-07T06:55:40.070Z,18.10
2023-05-07T06:58:08.101Z,18.10
2023-05-07T07:00:36.172Z,18.10
2023-05-07T07:03:04.294Z,18.20
2023-05-07T07:05:32.395Z,18.20
2023-05-07T07:08:00.499Z,18.30
2023-05-07T07:10:29.973Z,18.30
2023-05-07T07:12:58.106Z,18.30
2023-05-07T07:15:26.908Z,18.40
2023-05-07T07:17:54.977Z,18.40
2023-05-07T07:20:23.147Z,18.50
2023-05-07T07:22:51.180Z,18.50
2023-05-07T07:25:19.290Z,18.60
2023-05-07T07:27:48.723Z,18.60
2023-05-07T07:30:16.875Z,18.70
2023-05-07T07:32:44.965Z,18.70
2023-05-07T07:35:13.058Z,18.80
2023-05-07T07:37:41.125Z,18.90
2023-05-07T07:40:10.391Z,19.00
2023-05-07T07:42:38.881Z,19.00
2023-05-07T07:45:10.099Z,19.10
2023-05-07T07:47:38.196Z,19.10
2023-05-07T07:50:07.936Z,19.20
2023-05-07T07:52:36.049Z,19.20
2023-05-07T07:55:04.356Z,19.30
2023-05-07T07:57:32.550Z,19.30
2023-05-07T08:00:00.712Z,19.40
2023-05-07T08:02:30.263Z,19.40
2023-05-07T08:04:58.428Z,19.50
2023-05-07T08:07:26.454Z,19.50
2023-05-07T08:09:54.506Z,19.50
2023-05-07T08:12:22.710Z,19.60
2023-05-07T08:14:50.852Z,19.60
2023-05-07T08:17:18.990Z,19.60
2023-05-07T08:19:48.469Z,19.70
2023-05-07T08:22:16.645Z,19.70
2023-05-07T08:24:44.695Z,19.70
2023-05-07T08:27:12.775Z,19.80
2023-05-07T08:29:40.821Z,19.80
2023-05-07T08:32:08.857Z,19.80
2023-05-07T08:34:36.897Z,19.90
2023-05-07T08:37:06.310Z,19.90
2023-05-07T08:39:34.334Z,19.90
2023-05-07T08:42:05.671Z,20.00
2023-05-07T08:44:36.054Z,20.00
2023-05-07T08:47:04.549Z,20.10
2023-05-07T08:49:32.831Z,20.10
2023-05-07T08:52:01.225Z,20.20
2023-05-07T08:54:31.304Z,20.20
2023-05-07T08:56:59.396Z,20.20
2023-05-07T08:59:27.680Z,20.30
2023-05-07T09:01:55.891Z,20.30
2023-05-07T09:04:23.989Z,20.30
2023-05-07T09:06:52.716Z,20.40
2023-05-07T09:09:21.061Z,20.40
2023-05-07T09:11:51.807Z,20.50
2023-05-07T09:14:23.437Z,20.50
2023-05-07T09:16:51.583Z,20.60
2023-05-07T09:19:24.920Z,20.70
2023-05-07T09:22:00.454Z,20.70
2023-05-07T09:24:29.529Z,20.80
2023-05-07T09:27:00.168Z,20.90
2023-05-07T09:29:29.759Z,21.00
2023-05-07T09:31:57.967Z,21.00
2023-05-07T09:34:26.070Z,21.10
2023-05-07T09:36:54.099Z,21.10
2023-05-07T09:39:22.152Z,21.10
2023-05-07T09:41:52.275Z,21.20
2023-05-07T09:44:22.300Z,21.20
2023-05-07T09:46:56.631Z,21.20
2023-05-07T09:49:26.161Z,21.30
2023-05-07T09:51:55.256Z,21.30
2023-05-07T09:54:23.596Z,21.30
2023-05-07T09:56:51.908Z,21.40
2023-05-07T09:59:23.414Z,21.40
2023-05-07T10:01:53.539Z,21.50
2023-05-07T10:04:22.981Z,21.50
2023-05-07T10:06:51.471Z,21.50
2023-05-07T10:09:20.250Z,21.60
2023-05-07T10:11:49.829Z,21.60
2023-05-07T10:14:18.087Z,21.70
2023-05-07T10:16:49.650Z,21.70
2023-05-07T10:19:18.521Z,21.80
2023-05-07T10:21:53.357Z,21.80
2023-05-07T10:24:26.966Z,21.80
2023-05-07T10:26:57.249Z,21.90
2023-05-07T10:29:36.062Z,21.90
2023-05-07T10:32:27.025Z,21.90
2023-05-07T10:34:57.658Z,21.90
2023-05-07T10:37:26.999Z,22.00
2023-05-07T10:39:55.159Z,22.00
2023-05-07T10:42:23.343Z,22.00
2023-05-07T10:44:51.419Z,22.00
2023-05-07T10:47:20.909Z,22.10
2023-05-07T10:50:24.172Z,22.10
2023-05-07T10:53:29.564Z,22.10
2023-05-07T10:56:38.870Z,22.10
2023-05-07T10:59:42.882Z,22.20
2023-05-07T11:02:12.431Z,22.30
2023-05-07T11:04:42.682Z,22.40
2023-05-07T11:07:31.223Z,22.40
2023-05-07T11:10:05.616Z,22.40
2023-05-07T11:12:57.068Z,22.60
2023-05-07T11:15:39.907Z,22.70
2023-05-07T11:18:08.168Z,22.80
2023-05-07T11:20:55.016Z,22.90
2023-05-07T11:24:02.363Z,23.00
2023-05-07T11:26:33.094Z,23.00
2023-05-07T11:29:02.352Z,23.10
2023-05-07T11:31:31.052Z,23.10
2023-05-07T11:33:59.886Z,23.20
2023-05-07T11:36:34.350Z,23.30
2023-05-07T11:39:02.502Z,23.30
2023-05-07T11:41:38.037Z,23.40
2023-05-07T11:44:06.450Z,23.40
2023-05-07T11:46:35.763Z,23.50
2023-05-07T11:49:03.974Z,23.50
2023-05-07T11:51:33.461Z,23.50
2023-05-07T11:54:01.491Z,23.60
2023-05-07T11:56:29.586Z,23.60
2023-05-07T11:58:57.803Z,23.60
2023-05-07T12:01:25.838Z,23.60
2023-05-07T12:03:54.007Z,23.60
2023-05-07T12:06:22.070Z,23.50
2023-05-07T12:08:51.477Z,23.60
2023-05-07T12:11:26.223Z,23.60
2023-05-07T12:13:59.124Z,23.60
2023-05-07T12:16:28.018Z,23.70
2023-05-07T12:18:56.393Z,23.70
2023-05-07T12:21:25.316Z,23.70
2023-05-07T12:23:55.152Z,23.80
2023-05-07T12:26:23.232Z,23.90
2023-05-07T12:28:51.344Z,24.10
2023-05-07T12:31:19.901Z,24.10
2023-05-07T12:33:48.089Z,24.10
2023-05-07T12:36:16.144Z,24.20
2023-05-07T12:38:44.183Z,24.10
2023-05-07T12:41:14.343Z,24.10
2023-05-07T12:43:46.293Z,24.10
2023-05-07T12:46:15.613Z,24.10
2023-05-07T12:48:47.678Z,24.10
2023-05-07T12:51:16.380Z,24.10
2023-05-07T12:53:45.039Z,24.00
2023-05-07T12:56:17.554Z,24.00
2023-05-07T12:58:45.593Z,24.00
2023-05-07T13:01:16.588Z,24.00
2023-05-07T13:03:51.338Z,23.90
2023-05-07T13:06:19.647Z,23.90
2023-05-07T13:08:47.784Z,24.00
2023-05-07T13:11:17.222Z,24.00
2023-05-07T13:13:45.332Z,24.00
2023-05-07T13:16:13.858Z,24.00
2023-05-07T13:18:44.790Z,24.00
2023-05-07T13:21:14.184Z,24.00
2023-05-07T13:23:42.408Z,24.10
2023-05-07T13:26:24.892Z,24.10
2023-05-07T13:28:55.766Z,24.10
2023-05-07T13:31:23.980Z,24.10
2023-05-07T13:33:53.525Z,24.10
2023-05-07T13:36:21.762Z,24.10
2023-05-07T13:38:49.790Z,24.10
2023-05-07T13:41:18.005Z,24.10
2023-05-07T13:43:46.037Z,24.10
2023-05-07T13:46:15.498Z,24.20
2023-05-07T13:48:43.528Z,24.10
2023-05-07T13:51:11.600Z,24.20
2023-05-07T13:53:39.662Z,24.20
2023-05-07T13:56:07.944Z,24.20
2023-05-07T13:58:42.113Z,24.20
2023-05-07T14:01:18.824Z,24.10
2023-05-07T14:03:47.233Z,24.10
2023-05-07T14:06:15.433Z,24.10
2023-05-07T14:08:43.466Z,24.10
2023-05-07T14:11:11.545Z,24.10
2023-05-07T14:13:39.632Z,24.10
2023-05-07T14:16:08.065Z,24.10
2023-05-07T14:18:38.191Z,24.00
2023-05-07T14:21:08.610Z,24.10
2023-05-07T14:23:37.020Z,24.10
2023-05-07T14:26:05.254Z,24.10
2023-05-07T14:28:33.354Z,24.10
2023-05-07T14:31:01.956Z,24.10
2023-05-07T14:33:30.051Z,24.10
2023-05-07T14:35:59.513Z,24.10
2023-05-07T14:38:27.601Z,24.10
2023-05-07T14:40:57.152Z,24.10
2023-05-07T14:43:25.312Z,24.10
2023-05-07T14:45:54.041Z,24.00
2023-05-07T14:48:22.171Z,24.00
2023-05-07T14:50:50.574Z,24.00
2023-05-07T14:53:20.008Z,23.90
2023-05-07T14:55:49.112Z,23.90
2023-05-07T14:58:17.218Z,23.90
2023-05-07T15:00:45.358Z,23.90
2023-05-07T15:03:14.452Z,23.90
2023-05-07T15:05:42.776Z,23.90
2023-05-07T15:08:11.616Z,24.00
2023-05-07T15:10:42.514Z,23.90
2023-05-07T15:13:13.771Z,24.00
2023-05-07T15:15:44.458Z,24.00
2023-05-07T15:18:12.494Z,24.00
2023-05-07T15:20:40.948Z,24.00
2023-05-07T15:23:11.164Z,24.00
2023-05-07T15:25:40.617Z,24.00
2023-05-07T15:28:08.776Z,24.00
2023-05-07T15:30:37.032Z,23.90
2023-05-07T15:33:05.576Z,23.90
2023-05-07T15:35:33.657Z,23.90
2023-05-07T15:38:04.433Z,23.90
2023-05-07T15:40:33.555Z,23.80
2023-05-07T15:43:03.535Z,23.80
2023-05-07T15:45:31.696Z,23.70
2023-05-07T15:47:59.913Z,23.60
2023-05-07T15:50:29.567Z,23.60
2023-05-07T15:52:58.249Z,23.60
2023-05-07T15:55:26.388Z,23.50
2023-05-07T15:57:55.149Z,23.50
2023-05-07T16:00:24.922Z,23.40
2023-05-07T16:02:53.066Z,23.40
2023-05-07T16:05:21.293Z,23.30
2023-05-07T16:07:49.404Z,23.30
2023-05-07T16:10:17.541Z,23.30
2023-05-07T16:12:45.668Z,23.20
2023-05-07T16:15:14.058Z,23.20
2023-05-07T16:17:43.665Z,23.10
2023-05-07T16:20:13.119Z,23.10
2023-05-07T16:22:41.381Z,23.00
2023-05-07T16:25:11.155Z,23.00
2023-05-07T16:27:39.417Z,23.00
2023-05-07T16:30:08.978Z,22.90
2023-05-07T16:32:37.297Z,22.80
2023-05-07T16:35:07.708Z,22.80
2023-05-07T16:37:36.078Z,22.80
2023-05-07T16:40:07.318Z,22.80
2023-05-07T16:42:35.507Z,22.80
2023-05-07T16:45:04.502Z,22.80
2023-05-07T16:47:33.339Z,22.70
2023-05-07T16:50:01.517Z,22.70
2023-05-07T16:52:32.090Z,22.60
2023-05-07T16:55:01.425Z,22.50
2023-05-07T16:57:30.845Z,22.50
2023-05-07T16:59:59.992Z,22.40
2023-05-07T17:02:28.188Z,22.40
2023-05-07T17:04:56.325Z,22.30
2023-05-07T17:07:24.383Z,22.30
2023-05-07T17:09:53.782Z,22.20
2023-05-07T17:12:22.585Z,22.20
2023-05-07T17:14:50.688Z,22.20
2023-05-07T17:17:18.744Z,22.10
2023-05-07T17:19:46.792Z,22.00
2023-05-07T17:22:14.843Z,22.00
2023-05-07T17:24:42.882Z,22.00
2023-05-07T17:27:12.280Z,21.90
2023-05-07T17:29:40.358Z,21.80
2023-05-07T17:32:08.887Z,21.80
2023-05-07T17:34:36.945Z,21.70
2023-05-07T17:37:05.108Z,21.70
2023-05-07T17:39:33.131Z,21.60
2023-05-07T17:42:01.469Z,21.50
2023-05-07T17:44:31.024Z,21.50
2023-05-07T17:46:59.089Z,21.40
2023-05-07T17:49:27.281Z,21.40
2023-05-07T17:51:55.988Z,21.30
2023-05-07T17:54:26.080Z,21.20
2023-05-07T17:56:54.749Z,21.20
2023-05-07T17:59:22.772Z,21.20
2023-05-07T18:01:52.283Z,21.10
2023-05-07T18:04:21.608Z,21.10
2023-05-07T18:06:49.710Z,21.00
2023-05-07T18:09:17.767Z,21.00
2023-05-07T18:11:45.819Z,21.00
2023-05-07T18:14:13.883Z,20.90
2023-05-07T18:16:41.970Z,20.90
2023-05-07T18:19:12.077Z,20.90
2023-05-07T18:21:40.110Z,20.80
2023-05-07T18:24:09.193Z,20.70
2023-05-07T18:26:37.210Z,20.70
2023-05-07T18:29:05.268Z,20.70
2023-05-07T18:31:34.735Z,20.60
2023-05-07T18:34:06.224Z,20.60
2023-05-07T18:36:35.848Z,20.60
2023-05-07T18:39:04.533Z,20.50
2023-05-07T18:41:32.560Z,20.50
2023-05-07T18:44:00.581Z,20.40
2023-05-07T18:46:29.462Z,20.40
2023-05-07T18:48:57.661Z,20.30
2023-05-07T18:51:25.709Z,20.30
2023-05-07T18:53:55.105Z,20.20
2023-05-07T18:56:23.171Z,20.20
2023-05-07T18:58:51.193Z,20.20
2023-05-07T19:01:19.298Z,20.20
2023-05-07T19:03:47.343Z,20.10
2023-05-07T19:06:15.388Z,20.20
2023-05-07T19:08:43.548Z,20.10
2023-05-07T19:11:13.023Z,20.10
2023-05-07T19:13:41.078Z,20.10
2023-05-07T19:16:10.457Z,20.10
2023-05-07T19:18:38.589Z,20.00
2023-05-07T19:21:06.708Z,20.00
2023-05-07T19:23:37.074Z,19.90
2023-05-07T19:26:05.105Z,19.80
2023-05-07T19:28:35.686Z,19.80
2023-05-07T19:31:04.664Z,19.70
2023-05-07T19:33:32.802Z,19.60
2023-05-07T19:36:01.817Z,19.60
2023-05-07T19:38:30.390Z,19.50
2023-05-07T19:40:58.683Z,19.40
2023-05-07T19:43:26.707Z,19.40
2023-05-07T19:45:56.161Z,19.30
2023-05-07T19:48:24.217Z,19.30
2023-05-07T19:50:52.251Z,19.20
2023-05-07T19:53:20.371Z,19.20
2023-05-07T19:55:48.398Z,19.10
2023-05-07T19:58:16.807Z,19.10
2023-05-07T20:00:44.851Z,19.10
2023-05-07T20:03:18.565Z,19.10
2023-05-07T20:05:47.490Z,19.10
2023-05-07T20:08:15.803Z,19.10
2023-05-07T20:10:43.840Z,19.00
2023-05-07T20:13:12.524Z,19.00
2023-05-07T20:15:40.770Z,19.00
2023-05-07T20:18:09.097Z,19.00
2023-05-07T20:20:38.716Z,19.00
2023-05-07T20:23:06.762Z,18.90
2023-05-07T20:25:34.806Z,19.00
2023-05-07T20:28:02.876Z,18.90
2023-05-07T20:30:30.964Z,18.90
2023-05-07T20:32:59.164Z,18.90
2023-05-07T20:35:27.334Z,18.90
2023-05-07T20:37:56.776Z,18.80
2023-05-07T20:40:24.940Z,18.80
2023-05-07T20:42:52.950Z,18.80
2023-05-07T20:45:21.557Z,18.80
2023-05-07T20:47:49.687Z,18.80
2023-05-07T20:50:17.825Z,18.80
2023-05-07T20:52:46.197Z,18.80
2023-05-07T20:55:15.815Z,18.70
2023-05-07T20:57:43.863Z,18.70
2023-05-07T21:00:12.819Z,18.60
2023-05-07T21:02:41.127Z,18.70
2023-05-07T21:05:09.819Z,18.70
2023-05-07T21:07:37.834Z,18.60
2023-05-07T21:10:06.705Z,18.60
2023-05-07T21:12:36.308Z,18.60
2023-05-07T21:15:04.736Z,18.60
2023-05-07T21:17:35.090Z,18.50
2023-05-07T21:20:03.839Z,18.50
2023-05-07T21:22:32.000Z,18.50
2023-05-07T21:25:00.652Z,18.40
2023-05-07T21:27:29.894Z,18.50
2023-05-07T21:30:04.264Z,18.40
2023-05-07T21:32:32.388Z,18.40
2023-05-07T21:35:00.786Z,18.30
2023-05-07T21:37:28.868Z,18.30
2023-05-07T21:39:57.006Z,18.30
2023-05-07T21:42:25.718Z,18.20
2023-05-07T21:44:53.802Z,18.20
2023-05-07T21:47:23.223Z,18.10
2023-05-07T21:49:51.366Z,18.00
2023-05-07T21:52:19.436Z,18.00
2023-05-07T21:54:47.472Z,17.90
2023-05-07T21:57:15.859Z,17.90
2023-05-07T21:59:43.893Z,17.90
2023-05-07T22:02:11.915Z,17.80
2023-05-07T22:04:41.322Z,17.80
2023-05-07T22:07:09.371Z,17.70
2023-05-07T22:09:37.392Z,17.70
2023-05-07T22:12:05.958Z,17.70
2023-05-07T22:14:34.024Z,17.70
2023-05-07T22:17:02.096Z,17.60
2023-05-07T22:19:30.172Z,17.60
2023-05-07T22:21:59.598Z,17.60
2023-05-07T22:24:27.637Z,17.60
2023-05-07T22:26:55.673Z,17.60
2023-05-07T22:29:23.894Z,17.50
2023-05-07T22:31:52.047Z,17.50
2023-05-07T22:34:20.140Z,17.50
2023-05-07T22:36:48.197Z,17.50
2023-05-07T22:39:17.648Z,17.50
2023-05-07T22:41:45.739Z,17.40
2023-05-07T22:44:13.826Z,17.40
2023-05-07T22:46:41.853Z,17.40
2023-05-07T22:49:09.880Z,17.40
2023-05-07T22:51:37.904Z,17.40
2023-05-07T22:54:08.341Z,17.40
2023-05-07T22:56:37.741Z,17.40
2023-05-07T22:59:06.032Z,17.40
2023-05-07T23:01:34.135Z,17.40
2023-05-07T23:04:02.193Z,17.30
2023-05-07T23:06:30.967Z,17.30
2023-05-07T23:08:59.020Z,17.30
2023-05-07T23:11:27.374Z,17.30
2023-05-07T23:13:56.752Z,17.30
2023-05-07T23:16:24.887Z,17.20
2023-05-07T23:18:53.112Z,17.20
2023-05-07T23:21:21.296Z,17.20
2023-05-07T23:23:49.848Z,17.20
2023-05-07T23:26:17.974Z,17.10
2023-05-07T23:28:46.058Z,17.10
2023-05-07T23:31:15.550Z,17.10
2023-05-07T23:33:43.621Z,17.10
2023-05-07T23:36:11.699Z,17.00
2023-05-07T23:38:39.856Z,17.00
2023-05-07T23:41:08.191Z,17.00
2023-05-07T23:43:36.492Z,17.00
2023-05-07T23:46:04.612Z,17.00
2023-05-07T23:48:34.074Z,17.00
2023-05-07T23:51:02.098Z,17.00
2023-05-07T23:53:30.168Z,17.00
2023-05-07T23:55:58.231Z,17.00
2023-05-07T23:58:26.417Z,16.90
